sensor_id;sensor_type;location;lat;lon;timestamp;P1;durP1;ratioP1;P2;durP2;ratioP2
19867;SDS011;10096;51.112;6.776;2023-06-26T00:01:37;8.93;;;8.10;;
19867;SDS011;10096;51.112;6.776;2023-06-26T00:04:07;9.05;;;8.20;;
19867;SDS011;10096;51.112;6.776;2023-06-26T00:06:39;8.48;;;7.78;;
19867;SDS011;10096;51.112;6.776;2023-06-26T00:09:08;8.40;;;7.63;;
19867;SDS011;10096;51.112;6.776;2023-06-26T00:11:35;8.82;;;7.93;;
19867;SDS011;10096;51.112;6.776;2023-06-26T00:14:02;9.23;;;8.32;;
19867;SDS011;10096;51.112;6.776;2023-06-26T00:16:30;8.50;;;7.70;;
19867;SDS011;10096;51.112;6.776;2023-06-26T00:18:58;9.13;;;8.23;;
19867;SDS011;10096;51.112;6.776;2023-06-26T00:21:25;8.68;;;7.97;;
19867;SDS011;10096;51.112;6.776;2023-06-26T00:23:52;9.70;;;8.25;;
19867;SDS011;10096;51.112;6.776;2023-06-26T00:26:20;9.73;;;8.20;;
19867;SDS011;10096;51.112;6.776;2023-06-26T00:28:49;8.88;;;7.97;;
19867;SDS011;10096;51.112;6.776;2023-06-26T00:31:16;9.60;;;8.70;;
19867;SDS011;10096;51.112;6.776;2023-06-26T00:33:43;8.25;;;7.50;;
19867;SDS011;10096;51.112;6.776;2023-06-26T00:36:11;8.77;;;7.88;;
19867;SDS011;10096;51.112;6.776;2023-06-26T00:38:38;8.60;;;7.80;;
19867;SDS011;10096;51.112;6.776;2023-06-26T00:41:05;8.52;;;7.80;;
19867;SDS011;10096;51.112;6.776;2023-06-26T00:43:38;9.07;;;8.27;;
19867;SDS011;10096;51.112;6.776;2023-06-26T00:46:07;8.40;;;7.70;;
19867;SDS011;10096;51.112;6.776;2023-06-26T00:48:36;9.02;;;8.23;;
19867;SDS011;10096;51.112;6.776;2023-06-26T00:51:05;8.98;;;8.18;;
19867;SDS011;10096;51.112;6.776;2023-06-26T00:53:32;9.55;;;8.43;;
19867;SDS011;10096;51.112;6.776;2023-06-26T00:56:00;8.93;;;8.07;;
19867;SDS011;10096;51.112;6.776;2023-06-26T00:58:27;9.55;;;8.65;;
19867;SDS011;10096;51.112;6.776;2023-06-26T01:00:57;9.48;;;8.57;;
19867;SDS011;10096;51.112;6.776;2023-06-26T01:03:25;9.38;;;8.50;;
19867;SDS011;10096;51.112;6.776;2023-06-26T01:05:53;9.10;;;8.25;;
19867;SDS011;10096;51.112;6.776;2023-06-26T01:08:22;8.80;;;8.00;;
19867;SDS011;10096;51.112;6.776;2023-06-26T01:10:50;9.23;;;8.32;;
19867;SDS011;10096;51.112;6.776;2023-06-26T01:13:18;9.63;;;8.73;;
19867;SDS011;10096;51.112;6.776;2023-06-26T01:15:46;10.27;;;9.30;;
19867;SDS011;10096;51.112;6.776;2023-06-26T01:18:15;9.38;;;8.48;;
19867;SDS011;10096;51.112;6.776;2023-06-26T01:20:43;9.85;;;8.95;;
19867;SDS011;10096;51.112;6.776;2023-06-26T01:23:12;9.13;;;8.23;;
19867;SDS011;10096;51.112;6.776;2023-06-26T01:25:48;10.38;;;9.05;;
19867;SDS011;10096;51.112;6.776;2023-06-26T01:28:27;9.68;;;8.65;;
19867;SDS011;10096;51.112;6.776;2023-06-26T01:30:55;10.10;;;9.20;;
19867;SDS011;10096;51.112;6.776;2023-06-26T01:33:22;9.43;;;8.57;;
19867;SDS011;10096;51.112;6.776;2023-06-26T01:35:50;9.48;;;8.68;;
19867;SDS011;10096;51.112;6.776;2023-06-26T01:38:18;8.55;;;7.75;;
19867;SDS011;10096;51.112;6.776;2023-06-26T01:40:48;9.07;;;8.27;;
19867;SDS011;10096;51.112;6.776;2023-06-26T01:43:18;8.73;;;7.93;;
19867;SDS011;10096;51.112;6.776;2023-06-26T01:45:53;9.30;;;8.40;;
19867;SDS011;10096;51.112;6.776;2023-06-26T01:48:26;9.00;;;8.20;;
19867;SDS011;10096;51.112;6.776;2023-06-26T01:50:58;9.45;;;8.63;;
19867;SDS011;10096;51.112;6.776;2023-06-26T01:53:27;9.65;;;8.65;;
19867;SDS011;10096;51.112;6.776;2023-06-26T01:56:03;9.13;;;8.32;;
19867;SDS011;10096;51.112;6.776;2023-06-26T01:58:33;9.13;;;8.23;;
19867;SDS011;10096;51.112;6.776;2023-06-26T02:01:06;9.10;;;8.27;;
19867;SDS011;10096;51.112;6.776;2023-06-26T02:03:33;8.88;;;8.00;;
19867;SDS011;10096;51.112;6.776;2023-06-26T02:06:00;9.25;;;8.35;;
19867;SDS011;10096;51.112;6.776;2023-06-26T02:08:27;8.63;;;7.88;;
19867;SDS011;10096;51.112;6.776;2023-06-26T02:10:54;8.57;;;7.82;;
19867;SDS011;10096;51.112;6.776;2023-06-26T02:13:21;9.13;;;8.32;;
19867;SDS011;10096;51.112;6.776;2023-06-26T02:15:48;8.60;;;7.80;;
19867;SDS011;10096;51.112;6.776;2023-06-26T02:18:17;9.55;;;8.60;;
19867;SDS011;10096;51.112;6.776;2023-06-26T02:20:46;9.07;;;8.18;;
19867;SDS011;10096;51.112;6.776;2023-06-26T02:23:13;9.32;;;8.43;;
19867;SDS011;10096;51.112;6.776;2023-06-26T02:25:41;9.15;;;8.35;;
19867;SDS011;10096;51.112;6.776;2023-06-26T02:28:08;9.40;;;8.50;;
19867;SDS011;10096;51.112;6.776;2023-06-26T02:30:35;9.68;;;8.68;;
19867;SDS011;10096;51.112;6.776;2023-06-26T02:33:02;9.38;;;8.48;;
19867;SDS011;10096;51.112;6.776;2023-06-26T02:35:31;9.75;;;8.40;;
19867;SDS011;10096;51.112;6.776;2023-06-26T02:37:58;9.55;;;8.65;;
19867;SDS011;10096;51.112;6.776;2023-06-26T02:40:26;8.80;;;8.00;;
19867;SDS011;10096;51.112;6.776;2023-06-26T02:42:53;9.73;;;7.82;;
19867;SDS011;10096;51.112;6.776;2023-06-26T02:45:20;9.15;;;8.35;;
19867;SDS011;10096;51.112;6.776;2023-06-26T02:47:47;9.60;;;8.70;;
19867;SDS011;10096;51.112;6.776;2023-06-26T02:50:15;8.77;;;7.97;;
19867;SDS011;10096;51.112;6.776;2023-06-26T02:52:43;9.30;;;8.50;;
19867;SDS011;10096;51.112;6.776;2023-06-26T02:55:13;10.80;;;9.70;;
19867;SDS011;10096;51.112;6.776;2023-06-26T02:57:40;9.90;;;8.93;;
19867;SDS011;10096;51.112;6.776;2023-06-26T03:00:08;10.07;;;9.10;;
19867;SDS011;10096;51.112;6.776;2023-06-26T03:02:36;9.73;;;8.82;;
19867;SDS011;10096;51.112;6.776;2023-06-26T03:05:03;10.48;;;8.65;;
19867;SDS011;10096;51.112;6.776;2023-06-26T03:07:31;9.98;;;9.07;;
19867;SDS011;10096;51.112;6.776;2023-06-26T03:10:02;10.48;;;9.20;;
19867;SDS011;10096;51.112;6.776;2023-06-26T03:12:30;12.60;;;8.68;;
19867;SDS011;10096;51.112;6.776;2023-06-26T03:14:57;9.68;;;8.77;;
19867;SDS011;10096;51.112;6.776;2023-06-26T03:17:24;8.82;;;8.00;;
19867;SDS011;10096;51.112;6.776;2023-06-26T03:19:52;9.80;;;8.55;;
19867;SDS011;10096;51.112;6.776;2023-06-26T03:22:19;9.13;;;8.30;;
19867;SDS011;10096;51.112;6.776;2023-06-26T03:24:46;8.98;;;7.78;;
19867;SDS011;10096;51.112;6.776;2023-06-26T03:27:14;8.70;;;7.93;;
19867;SDS011;10096;51.112;6.776;2023-06-26T03:29:42;11.02;;;8.48;;
19867;SDS011;10096;51.112;6.776;2023-06-26T03:32:09;10.70;;;8.25;;
19867;SDS011;10096;51.112;6.776;2023-06-26T03:34:36;11.38;;;8.60;;
19867;SDS011;10096;51.112;6.776;2023-06-26T03:37:04;9.40;;;8.45;;
19867;SDS011;10096;51.112;6.776;2023-06-26T03:39:31;9.98;;;8.10;;
19867;SDS011;10096;51.112;6.776;2023-06-26T03:41:58;11.23;;;8.45;;
19867;SDS011;10096;51.112;6.776;2023-06-26T03:44:28;11.10;;;8.32;;
19867;SDS011;10096;51.112;6.776;2023-06-26T03:46:55;9.82;;;7.68;;
19867;SDS011;10096;51.112;6.776;2023-06-26T03:49:22;8.70;;;7.53;;
19867;SDS011;10096;51.112;6.776;2023-06-26T03:51:49;9.80;;;8.00;;
19867;SDS011;10096;51.112;6.776;2023-06-26T03:54:16;8.77;;;7.43;;
19867;SDS011;10096;51.112;6.776;2023-06-26T03:56:43;8.30;;;7.13;;
19867;SDS011;10096;51.112;6.776;2023-06-26T03:59:10;7.93;;;7.20;;
19867;SDS011;10096;51.112;6.776;2023-06-26T04:01:39;8.27;;;7.43;;
19867;SDS011;10096;51.112;6.776;2023-06-26T04:04:06;7.43;;;6.60;;
19867;SDS011;10096;51.112;6.776;2023-06-26T04:06:33;7.95;;;7.20;;
19867;SDS011;10096;51.112;6.776;2023-06-26T04:09:00;9.13;;;7.20;;
19867;SDS011;10096;51.112;6.776;2023-06-26T04:11:30;10.48;;;7.75;;
19867;SDS011;10096;51.112;6.776;2023-06-26T04:13:57;8.52;;;7.55;;
19867;SDS011;10096;51.112;6.776;2023-06-26T04:16:25;8.70;;;7.32;;
19867;SDS011;10096;51.112;6.776;2023-06-26T04:18:54;8.02;;;7.15;;
19867;SDS011;10096;51.112;6.776;2023-06-26T04:21:21;7.80;;;7.00;;
19867;SDS011;10096;51.112;6.776;2023-06-26T04:23:50;8.25;;;7.43;;
19867;SDS011;10096;51.112;6.776;2023-06-26T04:26:19;7.57;;;6.78;;
19867;SDS011;10096;51.112;6.776;2023-06-26T04:28:48;7.82;;;7.03;;
19867;SDS011;10096;51.112;6.776;2023-06-26T04:31:15;7.15;;;6.53;;
19867;SDS011;10096;51.112;6.776;2023-06-26T04:33:43;9.02;;;6.95;;
19867;SDS011;10096;51.112;6.776;2023-06-26T04:36:11;8.02;;;7.22;;
19867;SDS011;10096;51.112;6.776;2023-06-26T04:38:38;9.85;;;6.65;;
19867;SDS011;10096;51.112;6.776;2023-06-26T04:41:06;9.15;;;7.80;;
19867;SDS011;10096;51.112;6.776;2023-06-26T04:43:33;9.68;;;7.40;;
19867;SDS011;10096;51.112;6.776;2023-06-26T04:46:00;8.27;;;7.47;;
19867;SDS011;10096;51.112;6.776;2023-06-26T04:48:28;7.68;;;6.97;;
19867;SDS011;10096;51.112;6.776;2023-06-26T04:50:58;8.10;;;7.30;;
19867;SDS011;10096;51.112;6.776;2023-06-26T04:53:29;7.22;;;6.53;;
19867;SDS011;10096;51.112;6.776;2023-06-26T04:55:56;20.95;;;8.15;;
19867;SDS011;10096;51.112;6.776;2023-06-26T04:58:24;8.43;;;7.35;;
19867;SDS011;10096;51.112;6.776;2023-06-26T05:00:51;7.88;;;6.70;;
19867;SDS011;10096;51.112;6.776;2023-06-26T05:03:21;8.80;;;7.10;;
19867;SDS011;10096;51.112;6.776;2023-06-26T05:05:48;7.40;;;6.70;;
19867;SDS011;10096;51.112;6.776;2023-06-26T05:08:16;6.63;;;5.85;;
19867;SDS011;10096;51.112;6.776;2023-06-26T05:10:45;8.50;;;7.20;;
19867;SDS011;10096;51.112;6.776;2023-06-26T05:13:13;7.00;;;6.30;;
19867;SDS011;10096;51.112;6.776;2023-06-26T05:15:42;8.00;;;7.20;;
19867;SDS011;10096;51.112;6.776;2023-06-26T05:18:10;8.95;;;6.50;;
19867;SDS011;10096;51.112;6.776;2023-06-26T05:20:37;8.60;;;6.43;;
19867;SDS011;10096;51.112;6.776;2023-06-26T05:23:05;8.73;;;7.63;;
19867;SDS011;10096;51.112;6.776;2023-06-26T05:25:33;10.52;;;7.38;;
19867;SDS011;10096;51.112;6.776;2023-06-26T05:28:04;7.85;;;6.90;;
19867;SDS011;10096;51.112;6.776;2023-06-26T05:30:35;7.95;;;6.57;;
19867;SDS011;10096;51.112;6.776;2023-06-26T05:33:03;10.95;;;6.43;;
19867;SDS011;10096;51.112;6.776;2023-06-26T05:35:33;6.45;;;5.38;;
19867;SDS011;10096;51.112;6.776;2023-06-26T05:38:03;9.38;;;6.22;;
19867;SDS011;10096;51.112;6.776;2023-06-26T05:40:32;9.65;;;6.50;;
19867;SDS011;10096;51.112;6.776;2023-06-26T05:43:00;6.85;;;5.85;;
19867;SDS011;10096;51.112;6.776;2023-06-26T05:45:29;7.45;;;6.20;;
19867;SDS011;10096;51.112;6.776;2023-06-26T05:47:57;8.02;;;5.93;;
19867;SDS011;10096;51.112;6.776;2023-06-26T05:50:24;7.03;;;5.38;;
19867;SDS011;10096;51.112;6.776;2023-06-26T05:52:53;8.05;;;6.00;;
19867;SDS011;10096;51.112;6.776;2023-06-26T05:55:20;7.32;;;5.85;;
19867;SDS011;10096;51.112;6.776;2023-06-26T05:57:48;6.85;;;5.70;;
19867;SDS011;10096;51.112;6.776;2023-06-26T06:00:18;5.72;;;5.13;;
19867;SDS011;10096;51.112;6.776;2023-06-26T06:02:47;6.43;;;5.63;;
19867;SDS011;10096;51.112;6.776;2023-06-26T06:05:22;7.80;;;5.90;;
19867;SDS011;10096;51.112;6.776;2023-06-26T06:07:49;6.28;;;5.68;;
19867;SDS011;10096;51.112;6.776;2023-06-26T06:10:19;7.75;;;5.57;;
19867;SDS011;10096;51.112;6.776;2023-06-26T06:12:46;8.75;;;6.07;;
19867;SDS011;10096;51.112;6.776;2023-06-26T06:15:13;8.00;;;6.63;;
19867;SDS011;10096;51.112;6.776;2023-06-26T06:17:41;7.40;;;5.55;;
19867;SDS011;10096;51.112;6.776;2023-06-26T06:20:10;10.10;;;5.75;;
19867;SDS011;10096;51.112;6.776;2023-06-26T06:22:37;6.38;;;5.78;;
19867;SDS011;10096;51.112;6.776;2023-06-26T06:25:07;8.07;;;6.28;;
19867;SDS011;10096;51.112;6.776;2023-06-26T06:27:35;7.30;;;5.32;;
19867;SDS011;10096;51.112;6.776;2023-06-26T06:30:02;8.32;;;5.90;;
19867;SDS011;10096;51.112;6.776;2023-06-26T06:32:30;10.10;;;6.10;;
19867;SDS011;10096;51.112;6.776;2023-06-26T06:34:57;9.23;;;5.78;;
19867;SDS011;10096;51.112;6.776;2023-06-26T06:37:30;6.95;;;5.70;;
19867;SDS011;10096;51.112;6.776;2023-06-26T06:39:57;7.20;;;6.03;;
19867;SDS011;10096;51.112;6.776;2023-06-26T06:42:24;10.40;;;6.97;;
19867;SDS011;10096;51.112;6.776;2023-06-26T06:44:51;7.35;;;5.57;;
19867;SDS011;10096;51.112;6.776;2023-06-26T06:47:18;7.35;;;6.15;;
19867;SDS011;10096;51.112;6.776;2023-06-26T06:49:46;8.18;;;5.28;;
19867;SDS011;10096;51.112;6.776;2023-06-26T06:52:13;8.13;;;5.88;;
19867;SDS011;10096;51.112;6.776;2023-06-26T06:54:56;7.40;;;5.25;;
19867;SDS011;10096;51.112;6.776;2023-06-26T06:57:25;10.07;;;6.75;;
19867;SDS011;10096;51.112;6.776;2023-06-26T06:59:52;7.57;;;5.80;;
19867;SDS011;10096;51.112;6.776;2023-06-26T07:02:19;9.32;;;6.30;;
19867;SDS011;10096;51.112;6.776;2023-06-26T07:04:46;8.40;;;6.78;;
19867;SDS011;10096;51.112;6.776;2023-06-26T07:07:13;6.18;;;5.60;;
19867;SDS011;10096;51.112;6.776;2023-06-26T07:09:45;8.25;;;5.57;;
19867;SDS011;10096;51.112;6.776;2023-06-26T07:12:14;7.68;;;5.35;;
19867;SDS011;10096;51.112;6.776;2023-06-26T07:14:41;11.30;;;5.95;;
19867;SDS011;10096;51.112;6.776;2023-06-26T07:17:09;7.93;;;6.45;;
19867;SDS011;10096;51.112;6.776;2023-06-26T07:19:36;9.02;;;6.82;;
19867;SDS011;10096;51.112;6.776;2023-06-26T07:22:04;6.72;;;5.88;;
19867;SDS011;10096;51.112;6.776;2023-06-26T07:24:31;7.05;;;5.95;;
19867;SDS011;10096;51.112;6.776;2023-06-26T07:26:59;7.30;;;5.22;;
19867;SDS011;10096;51.112;6.776;2023-06-26T07:29:28;7.40;;;5.40;;
19867;SDS011;10096;51.112;6.776;2023-06-26T07:31:56;8.73;;;5.35;;
19867;SDS011;10096;51.112;6.776;2023-06-26T07:34:23;6.55;;;5.45;;
19867;SDS011;10096;51.112;6.776;2023-06-26T07:36:50;8.77;;;6.00;;
19867;SDS011;10096;51.112;6.776;2023-06-26T07:39:17;7.25;;;5.25;;
19867;SDS011;10096;51.112;6.776;2023-06-26T07:41:44;7.80;;;5.07;;
19867;SDS011;10096;51.112;6.776;2023-06-26T07:44:11;6.50;;;5.45;;
19867;SDS011;10096;51.112;6.776;2023-06-26T07:46:43;6.15;;;5.53;;
19867;SDS011;10096;51.112;6.776;2023-06-26T07:49:10;7.43;;;5.20;;
19867;SDS011;10096;51.112;6.776;2023-06-26T07:51:38;9.50;;;6.25;;
19867;SDS011;10096;51.112;6.776;2023-06-26T07:54:05;6.50;;;5.75;;
19867;SDS011;10096;51.112;6.776;2023-06-26T07:56:34;7.80;;;5.43;;
19867;SDS011;10096;51.112;6.776;2023-06-26T07:59:18;7.25;;;5.45;;
19867;SDS011;10096;51.112;6.776;2023-06-26T08:01:47;6.95;;;5.32;;
19867;SDS011;10096;51.112;6.776;2023-06-26T08:04:15;7.03;;;5.25;;
19867;SDS011;10096;51.112;6.776;2023-06-26T08:06:43;6.57;;;5.18;;
19867;SDS011;10096;51.112;6.776;2023-06-26T08:09:10;7.90;;;5.47;;
19867;SDS011;10096;51.112;6.776;2023-06-26T08:11:37;6.00;;;4.80;;
19867;SDS011;10096;51.112;6.776;2023-06-26T08:14:05;8.57;;;5.57;;
19867;SDS011;10096;51.112;6.776;2023-06-26T08:16:37;8.70;;;5.10;;
19867;SDS011;10096;51.112;6.776;2023-06-26T08:19:07;9.05;;;6.15;;
19867;SDS011;10096;51.112;6.776;2023-06-26T08:21:34;8.23;;;5.97;;
19867;SDS011;10096;51.112;6.776;2023-06-26T08:24:02;8.93;;;5.32;;
19867;SDS011;10096;51.112;6.776;2023-06-26T08:26:32;7.35;;;5.97;;
19867;SDS011;10096;51.112;6.776;2023-06-26T08:29:00;8.32;;;6.43;;
19867;SDS011;10096;51.112;6.776;2023-06-26T08:31:32;7.07;;;5.93;;
19867;SDS011;10096;51.112;6.776;2023-06-26T08:33:59;8.45;;;5.60;;
19867;SDS011;10096;51.112;6.776;2023-06-26T08:36:28;8.38;;;6.07;;
19867;SDS011;10096;51.112;6.776;2023-06-26T08:38:56;8.05;;;5.30;;
19867;SDS011;10096;51.112;6.776;2023-06-26T08:41:23;8.88;;;8.05;;
19867;SDS011;10096;51.112;6.776;2023-06-26T08:43:51;11.80;;;6.32;;
19867;SDS011;10096;51.112;6.776;2023-06-26T08:46:18;9.00;;;6.25;;
19867;SDS011;10096;51.112;6.776;2023-06-26T08:48:48;8.00;;;6.13;;
19867;SDS011;10096;51.112;6.776;2023-06-26T08:51:16;9.43;;;6.35;;
19867;SDS011;10096;51.112;6.776;2023-06-26T08:53:48;6.82;;;5.30;;
19867;SDS011;10096;51.112;6.776;2023-06-26T08:56:22;8.63;;;6.05;;
19867;SDS011;10096;51.112;6.776;2023-06-26T08:58:51;8.95;;;6.28;;
19867;SDS011;10096;51.112;6.776;2023-06-26T09:01:19;8.15;;;5.75;;
19867;SDS011;10096;51.112;6.776;2023-06-26T09:03:49;9.13;;;5.68;;
19867;SDS011;10096;51.112;6.776;2023-06-26T09:06:19;10.95;;;6.05;;
19867;SDS011;10096;51.112;6.776;2023-06-26T09:08:48;8.30;;;6.90;;
19867;SDS011;10096;51.112;6.776;2023-06-26T09:11:15;10.23;;;6.53;;
19867;SDS011;10096;51.112;6.776;2023-06-26T09:13:43;9.98;;;5.63;;
19867;SDS011;10096;51.112;6.776;2023-06-26T09:16:12;9.57;;;6.78;;
19867;SDS011;10096;51.112;6.776;2023-06-26T09:18:40;10.65;;;5.55;;
19867;SDS011;10096;51.112;6.776;2023-06-26T09:21:08;6.50;;;5.55;;
19867;SDS011;10096;51.112;6.776;2023-06-26T09:23:39;5.75;;;5.13;;
19867;SDS011;10096;51.112;6.776;2023-06-26T09:26:11;10.32;;;7.00;;
19867;SDS011;10096;51.112;6.776;2023-06-26T09:28:41;7.95;;;5.63;;
19867;SDS011;10096;51.112;6.776;2023-06-26T09:31:09;10.23;;;5.90;;
19867;SDS011;10096;51.112;6.776;2023-06-26T09:33:37;8.77;;;5.93;;
19867;SDS011;10096;51.112;6.776;2023-06-26T09:36:06;9.50;;;6.00;;
19867;SDS011;10096;51.112;6.776;2023-06-26T09:38:45;9.40;;;5.88;;
19867;SDS011;10096;51.112;6.776;2023-06-26T09:41:13;7.93;;;6.10;;
19867;SDS011;10096;51.112;6.776;2023-06-26T09:43:46;6.43;;;5.35;;
19867;SDS011;10096;51.112;6.776;2023-06-26T09:46:15;7.00;;;5.18;;
19867;SDS011;10096;51.112;6.776;2023-06-26T09:49:04;7.50;;;5.57;;
19867;SDS011;10096;51.112;6.776;2023-06-26T09:51:42;8.57;;;6.15;;
19867;SDS011;10096;51.112;6.776;2023-06-26T09:54:10;8.45;;;5.65;;
19867;SDS011;10096;51.112;6.776;2023-06-26T09:56:38;9.27;;;5.47;;
19867;SDS011;10096;51.112;6.776;2023-06-26T09:59:05;7.38;;;5.50;;
19867;SDS011;10096;51.112;6.776;2023-06-26T10:01:36;9.15;;;5.18;;
19867;SDS011;10096;51.112;6.776;2023-06-26T10:04:20;12.75;;;5.20;;
19867;SDS011;10096;51.112;6.776;2023-06-26T10:06:47;5.88;;;4.72;;
19867;SDS011;10096;51.112;6.776;2023-06-26T10:09:19;8.75;;;5.22;;
19867;SDS011;10096;51.112;6.776;2023-06-26T10:12:02;7.00;;;4.65;;
19867;SDS011;10096;51.112;6.776;2023-06-26T10:14:33;8.18;;;4.85;;
19867;SDS011;10096;51.112;6.776;2023-06-26T10:17:03;8.77;;;4.70;;
19867;SDS011;10096;51.112;6.776;2023-06-26T10:19:35;12.48;;;7.85;;
19867;SDS011;10096;51.112;6.776;2023-06-26T10:22:04;6.80;;;4.70;;
19867;SDS011;10096;51.112;6.776;2023-06-26T10:24:33;8.85;;;4.95;;
19867;SDS011;10096;51.112;6.776;2023-06-26T10:27:04;7.25;;;4.38;;
19867;SDS011;10096;51.112;6.776;2023-06-26T10:29:37;6.05;;;4.55;;
19867;SDS011;10096;51.112;6.776;2023-06-26T10:32:05;7.30;;;4.78;;
19867;SDS011;10096;51.112;6.776;2023-06-26T10:34:38;7.40;;;5.15;;
19867;SDS011;10096;51.112;6.776;2023-06-26T10:37:05;10.07;;;4.68;;
19867;SDS011;10096;51.112;6.776;2023-06-26T10:39:47;6.03;;;3.97;;
19867;SDS011;10096;51.112;6.776;2023-06-26T10:42:19;6.78;;;3.95;;
19867;SDS011;10096;51.112;6.776;2023-06-26T10:44:55;6.75;;;3.83;;
19867;SDS011;10096;51.112;6.776;2023-06-26T10:47:31;8.50;;;6.32;;
19867;SDS011;10096;51.112;6.776;2023-06-26T10:50:20;5.40;;;3.90;;
19867;SDS011;10096;51.112;6.776;2023-06-26T10:55:54;5.85;;;3.95;;
19867;SDS011;10096;51.112;6.776;2023-06-26T10:58:31;4.55;;;3.83;;
19867;SDS011;10096;51.112;6.776;2023-06-26T11:01:19;6.47;;;4.50;;
19867;SDS011;10096;51.112;6.776;2023-06-26T11:03:48;5.63;;;3.70;;
19867;SDS011;10096;51.112;6.776;2023-06-26T11:06:27;7.25;;;4.35;;
19867;SDS011;10096;51.112;6.776;2023-06-26T11:08:59;4.28;;;3.20;;
19867;SDS011;10096;51.112;6.776;2023-06-26T11:14:25;23.27;;;10.63;;
19867;SDS011;10096;51.112;6.776;2023-06-26T11:16:55;7.38;;;4.30;;
19867;SDS011;10096;51.112;6.776;2023-06-26T11:19:23;3.90;;;3.08;;
19867;SDS011;10096;51.112;6.776;2023-06-26T11:21:52;7.53;;;4.63;;
19867;SDS011;10096;51.112;6.776;2023-06-26T11:24:24;7.47;;;3.65;;
19867;SDS011;10096;51.112;6.776;2023-06-26T11:26:52;3.67;;;3.08;;
19867;SDS011;10096;51.112;6.776;2023-06-26T11:29:19;6.68;;;3.70;;
19867;SDS011;10096;51.112;6.776;2023-06-26T11:31:57;4.07;;;3.00;;
19867;SDS011;10096;51.112;6.776;2023-06-26T11:34:25;4.20;;;3.28;;
19867;SDS011;10096;51.112;6.776;2023-06-26T11:36:56;6.55;;;3.45;;
19867;SDS011;10096;51.112;6.776;2023-06-26T11:39:33;3.05;;;2.47;;
19867;SDS011;10096;51.112;6.776;2023-06-26T11:42:00;3.90;;;2.80;;
19867;SDS011;10096;51.112;6.776;2023-06-26T11:44:31;4.90;;;2.90;;
19867;SDS011;10096;51.112;6.776;2023-06-26T11:47:01;4.38;;;2.83;;
19867;SDS011;10096;51.112;6.776;2023-06-26T11:49:28;5.47;;;2.80;;
19867;SDS011;10096;51.112;6.776;2023-06-26T11:51:56;4.43;;;2.97;;
19867;SDS011;10096;51.112;6.776;2023-06-26T11:54:24;3.95;;;2.78;;
19867;SDS011;10096;51.112;6.776;2023-06-26T11:56:52;5.68;;;3.70;;
19867;SDS011;10096;51.112;6.776;2023-06-26T11:59:23;11.25;;;3.13;;
19867;SDS011;10096;51.112;6.776;2023-06-26T12:01:52;6.00;;;3.00;;
19867;SDS011;10096;51.112;6.776;2023-06-26T12:04:22;3.45;;;3.13;;
19867;SDS011;10096;51.112;6.776;2023-06-26T12:06:50;5.57;;;3.28;;
19867;SDS011;10096;51.112;6.776;2023-06-26T12:09:22;5.10;;;3.03;;
19867;SDS011;10096;51.112;6.776;2023-06-26T12:11:53;5.13;;;3.08;;
19867;SDS011;10096;51.112;6.776;2023-06-26T12:14:22;4.10;;;2.75;;
19867;SDS011;10096;51.112;6.776;2023-06-26T12:16:52;6.63;;;2.80;;
19867;SDS011;10096;51.112;6.776;2023-06-26T12:19:25;4.80;;;3.00;;
19867;SDS011;10096;51.112;6.776;2023-06-26T12:21:53;5.70;;;3.03;;
19867;SDS011;10096;51.112;6.776;2023-06-26T12:24:22;11.45;;;5.15;;
19867;SDS011;10096;51.112;6.776;2023-06-26T12:26:51;4.28;;;2.60;;
19867;SDS011;10096;51.112;6.776;2023-06-26T12:29:24;4.05;;;2.97;;
19867;SDS011;10096;51.112;6.776;2023-06-26T12:31:59;6.80;;;3.10;;
19867;SDS011;10096;51.112;6.776;2023-06-26T12:34:31;3.40;;;2.78;;
19867;SDS011;10096;51.112;6.776;2023-06-26T12:37:03;5.22;;;2.80;;
19867;SDS011;10096;51.112;6.776;2023-06-26T12:39:44;6.53;;;2.70;;
19867;SDS011;10096;51.112;6.776;2023-06-26T12:42:13;3.22;;;2.58;;
19867;SDS011;10096;51.112;6.776;2023-06-26T12:44:44;4.57;;;2.47;;
19867;SDS011;10096;51.112;6.776;2023-06-26T12:47:13;3.40;;;2.72;;
19867;SDS011;10096;51.112;6.776;2023-06-26T12:49:44;4.00;;;2.35;;
19867;SDS011;10096;51.112;6.776;2023-06-26T12:52:13;2.58;;;2.17;;
19867;SDS011;10096;51.112;6.776;2023-06-26T12:54:41;4.50;;;2.38;;
19867;SDS011;10096;51.112;6.776;2023-06-26T12:57:09;4.57;;;1.98;;
19867;SDS011;10096;51.112;6.776;2023-06-26T12:59:40;3.00;;;2.17;;
19867;SDS011;10096;51.112;6.776;2023-06-26T13:02:08;4.43;;;2.13;;
19867;SDS011;10096;51.112;6.776;2023-06-26T13:04:37;2.95;;;2.42;;
19867;SDS011;10096;51.112;6.776;2023-06-26T13:07:07;4.20;;;2.58;;
19867;SDS011;10096;51.112;6.776;2023-06-26T13:09:35;2.30;;;2.10;;
19867;SDS011;10096;51.112;6.776;2023-06-26T13:12:03;5.47;;;3.00;;
19867;SDS011;10096;51.112;6.776;2023-06-26T13:14:32;3.70;;;2.25;;
19867;SDS011;10096;51.112;6.776;2023-06-26T13:16:59;4.68;;;3.20;;
19867;SDS011;10096;51.112;6.776;2023-06-26T13:19:27;3.50;;;2.42;;
19867;SDS011;10096;51.112;6.776;2023-06-26T13:21:54;3.33;;;2.65;;
19867;SDS011;10096;51.112;6.776;2023-06-26T13:24:23;5.22;;;2.45;;
19867;SDS011;10096;51.112;6.776;2023-06-26T13:26:50;6.28;;;2.60;;
19867;SDS011;10096;51.112;6.776;2023-06-26T13:29:19;3.22;;;2.20;;
19867;SDS011;10096;51.112;6.776;2023-06-26T13:31:46;2.70;;;2.15;;
19867;SDS011;10096;51.112;6.776;2023-06-26T13:34:19;2.45;;;2.25;;
19867;SDS011;10096;51.112;6.776;2023-06-26T13:36:48;5.15;;;2.78;;
19867;SDS011;10096;51.112;6.776;2023-06-26T13:39:15;3.13;;;2.60;;
19867;SDS011;10096;51.112;6.776;2023-06-26T13:41:43;4.05;;;2.28;;
19867;SDS011;10096;51.112;6.776;2023-06-26T13:44:11;2.50;;;2.15;;
19867;SDS011;10096;51.112;6.776;2023-06-26T13:46:38;7.88;;;4.18;;
19867;SDS011;10096;51.112;6.776;2023-06-26T13:49:05;3.83;;;2.40;;
19867;SDS011;10096;51.112;6.776;2023-06-26T13:51:32;4.93;;;2.00;;
19867;SDS011;10096;51.112;6.776;2023-06-26T13:54:01;4.32;;;1.85;;
19867;SDS011;10096;51.112;6.776;2023-06-26T13:56:28;4.22;;;2.58;;
19867;SDS011;10096;51.112;6.776;2023-06-26T13:58:57;6.13;;;3.95;;
19867;SDS011;10096;51.112;6.776;2023-06-26T14:01:24;7.50;;;2.75;;
19867;SDS011;10096;51.112;6.776;2023-06-26T14:03:52;2.88;;;2.03;;
19867;SDS011;10096;51.112;6.776;2023-06-26T14:06:19;7.22;;;2.72;;
19867;SDS011;10096;51.112;6.776;2023-06-26T14:08:48;12.05;;;4.20;;
19867;SDS011;10096;51.112;6.776;2023-06-26T14:11:15;3.67;;;2.40;;
19867;SDS011;10096;51.112;6.776;2023-06-26T14:13:42;7.07;;;3.25;;
19867;SDS011;10096;51.112;6.776;2023-06-26T14:16:12;7.95;;;2.83;;
19867;SDS011;10096;51.112;6.776;2023-06-26T14:18:40;3.35;;;2.78;;
19867;SDS011;10096;51.112;6.776;2023-06-26T14:21:07;4.53;;;2.33;;
19867;SDS011;10096;51.112;6.776;2023-06-26T14:23:34;2.90;;;2.55;;
19867;SDS011;10096;51.112;6.776;2023-06-26T14:26:01;7.30;;;4.85;;
19867;SDS011;10096;51.112;6.776;2023-06-26T14:28:29;2.95;;;2.38;;
19867;SDS011;10096;51.112;6.776;2023-06-26T14:30:58;5.47;;;3.28;;
19867;SDS011;10096;51.112;6.776;2023-06-26T14:33:26;3.25;;;2.45;;
19867;SDS011;10096;51.112;6.776;2023-06-26T14:35:56;3.60;;;3.10;;
19867;SDS011;10096;51.112;6.776;2023-06-26T14:38:23;4.75;;;2.70;;
19867;SDS011;10096;51.112;6.776;2023-06-26T14:40:50;4.75;;;2.53;;
19867;SDS011;10096;51.112;6.776;2023-06-26T14:43:20;5.43;;;2.58;;
19867;SDS011;10096;51.112;6.776;2023-06-26T14:45:47;4.50;;;3.55;;
19867;SDS011;10096;51.112;6.776;2023-06-26T14:48:14;3.17;;;2.72;;
19867;SDS011;10096;51.112;6.776;2023-06-26T14:50:43;4.45;;;2.45;;
19867;SDS011;10096;51.112;6.776;2023-06-26T14:53:13;4.38;;;3.08;;
19867;SDS011;10096;51.112;6.776;2023-06-26T14:55:41;3.08;;;2.63;;
19867;SDS011;10096;51.112;6.776;2023-06-26T14:58:08;3.10;;;2.45;;
19867;SDS011;10096;51.112;6.776;2023-06-26T15:00:35;4.25;;;2.63;;
19867;SDS011;10096;51.112;6.776;2023-06-26T15:03:02;4.40;;;2.80;;